Time;durP1;ratioP1;P1;durP2;ratioP2;P2;SDS_P1;SDS_P2;PMS_P1;PMS_P2;Temp;Humidity;BMP_temperature;BMP_pressure;BME280_temperature;BME280_humidity;BME280_pressure;Samples;Min_cycle;Max_cycle;Signal;HPM_P1;HPM_P2
2022/06/03 00:00:25;;;;;;;6.32;3.97;;;13.70;99.90;;;;;;5071316;28;20635;-61
2022/06/03 00:03:03;;;;;;;6.88;3.70;;;13.60;99.90;;;;;;5069055;28;20431;-61
2022/06/03 00:05:45;;;;;;;5.65;3.85;;;13.60;99.90;;;;;;5070198;28;20660;-61
2022/06/03 00:08:18;;;;;;;6.22;3.33;;;13.60;99.90;;;;;;5068583;28;21047;-61
2022/06/03 00:11:06;;;;;;;6.70;3.95;;;13.50;99.90;;;;;;5068605;28;20384;-61
2022/06/03 00:14:08;;;;;;;8.80;3.85;;;13.50;99.90;;;;;;5069457;28;20421;-61
2022/06/03 00:16:56;;;;;;;7.03;3.63;;;13.40;99.90;;;;;;5071220;28;20383;-62
2022/06/03 00:19:40;;;;;;;5.93;3.60;;;13.40;99.90;;;;;;5069546;28;20796;-61
2022/06/03 00:22:46;;;;;;;5.38;3.60;;;13.30;99.90;;;;;;5067933;28;20527;-62
2022/06/03 00:25:20;;;;;;;7.25;3.90;;;13.30;99.90;;;;;;5068775;28;20391;-62
2022/06/03 00:28:09;;;;;;;6.63;4.38;;;13.30;99.90;;;;;;5066421;28;20411;-62
2022/06/03 00:30:57;;;;;;;5.68;4.00;;;13.20;99.90;;;;;;5068971;28;20653;-63
2022/06/03 00:33:35;;;;;;;6.73;3.80;;;13.20;99.90;;;;;;5068584;28;20696;-62
2022/06/03 00:36:09;;;;;;;8.20;4.07;;;13.10;99.90;;;;;;5068092;28;20798;-62
2022/06/03 00:38:44;;;;;;;5.38;4.00;;;13.10;99.90;;;;;;5068169;28;20420;-62
2022/06/03 00:41:30;;;;;;;5.37;3.93;;;13.00;99.90;;;;;;5070413;28;20376;-62
2022/06/03 00:44:34;;;;;;;8.67;4.40;;;12.90;99.90;;;;;;5068892;28;20696;-63
2022/06/03 00:47:33;;;;;;;6.20;4.05;;;12.90;99.90;;;;;;5010662;28;20403;-64
2022/06/03 00:50:25;;;;;;;5.35;3.92;;;12.80;99.90;;;;;;5069525;28;20398;-62
2022/06/03 00:53:10;;;;;;;6.20;4.18;;;12.80;99.90;;;;;;5068550;28;20398;-62
2022/06/03 00:56:03;;;;;;;6.30;4.10;;;12.70;99.90;;;;;;5071875;28;20643;-61
2022/06/03 00:58:51;;;;;;;5.50;3.88;;;12.70;99.90;;;;;;5071380;28;20784;-62
2022/06/03 01:01:57;;;;;;;6.73;3.80;;;12.60;99.90;;;;;;5070945;28;20738;-62
2022/06/03 01:04:44;;;;;;;6.50;4.22;;;12.60;99.90;;;;;;5072947;28;20679;-62
2022/06/03 01:07:20;;;;;;;5.78;4.13;;;12.60;99.90;;;;;;5073545;28;20458;-61
2022/06/03 01:10:10;;;;;;;7.40;4.13;;;12.60;99.90;;;;;;5073484;28;20375;-62
2022/06/03 01:13:03;;;;;;;5.72;4.10;;;12.60;99.90;;;;;;5071548;28;20819;-62
2022/06/03 01:15:51;;;;;;;7.93;4.20;;;12.50;99.90;;;;;;5071990;28;20407;-62
2022/06/03 01:18:20;;;;;;;5.20;3.80;;;12.50;99.90;;;;;;5070293;28;20818;-62
2022/06/03 01:21:04;;;;;;;5.68;4.00;;;12.50;99.90;;;;;;5073785;28;20376;-62
2022/06/03 01:24:07;;;;;;;6.05;3.85;;;12.40;99.90;;;;;;5058761;28;20384;-62
2022/06/03 01:26:51;;;;;;;5.97;4.13;;;12.30;99.90;;;;;;5042492;28;20414;-61
2022/06/03 01:29:41;;;;;;;6.40;3.83;;;12.30;99.90;;;;;;5072138;28;20547;-62
2022/06/03 01:32:26;;;;;;;6.90;3.80;;;12.30;99.90;;;;;;5075518;28;20760;-62
2022/06/03 01:35:13;;;;;;;6.85;4.05;;;12.20;99.90;;;;;;5075947;28;20410;-62
2022/06/03 01:38:02;;;;;;;6.60;4.13;;;12.20;99.90;;;;;;5076717;28;20606;-62
2022/06/03 01:40:27;;;;;;;7.10;4.10;;;12.20;99.90;;;;;;5075623;28;20621;-63
2022/06/03 01:43:02;;;;;;;5.60;4.33;;;12.20;99.90;;;;;;5075417;28;20928;-62
2022/06/03 01:45:59;;;;;;;4.53;3.75;;;12.10;99.90;;;;;;5075879;28;20790;-62
2022/06/03 01:49:01;;;;;;;6.95;4.35;;;12.10;99.90;;;;;;5075447;28;20406;-62
2022/06/03 01:51:58;;;;;;;6.30;4.07;;;12.10;99.90;;;;;;5074549;28;20382;-61
2022/06/03 01:54:42;;;;;;;6.43;4.32;;;12.10;99.90;;;;;;5074692;28;20387;-62
2022/06/03 01:57:33;;;;;;;6.75;4.10;;;12.00;99.90;;;;;;5074866;28;20399;-62
2022/06/03 02:00:10;;;;;;;5.18;3.72;;;12.00;99.90;;;;;;5074945;28;20728;-62
2022/06/03 02:02:51;;;;;;;6.40;4.10;;;11.90;99.90;;;;;;5073744;28;20453;-62
2022/06/03 02:05:41;;;;;;;5.78;4.10;;;11.80;99.90;;;;;;5071952;28;20386;-62
2022/06/03 02:08:49;;;;;;;5.30;3.78;;;11.70;99.90;;;;;;5072873;28;20399;-62
2022/06/03 02:11:26;;;;;;;6.90;4.05;;;11.70;99.90;;;;;;5072596;28;20475;-62
2022/06/03 02:14:01;;;;;;;6.57;4.05;;;11.70;99.90;;;;;;5070707;28;20395;-62
2022/06/03 02:16:39;;;;;;;7.05;4.25;;;11.70;99.90;;;;;;5070791;28;20376;-61
2022/06/03 02:19:17;;;;;;;7.65;4.07;;;11.70;99.90;;;;;;5069510;28;20474;-61
2022/06/03 02:22:37;;;;;;;5.47;4.25;;;11.70;99.90;;;;;;5072317;28;20468;-61
2022/06/03 02:25:21;;;;;;;6.50;4.33;;;11.60;99.90;;;;;;5029943;28;20391;-62
2022/06/03 02:28:05;;;;;;;6.28;4.03;;;11.60;99.90;;;;;;5071255;28;20554;-62
2022/06/03 02:30:55;;;;;;;4.88;3.65;;;11.60;99.90;;;;;;5073442;28;20478;-62
2022/06/03 02:33:40;;;;;;;6.15;4.13;;;11.60;99.90;;;;;;5074597;28;20419;-62
2022/06/03 02:36:06;;;;;;;6.68;4.00;;;11.50;99.90;;;;;;5071746;28;20388;-62
2022/06/03 02:38:51;;;;;;;5.90;4.15;;;11.50;99.90;;;;;;5074862;28;20395;-61
2022/06/03 02:42:01;;;;;;;8.25;4.13;;;11.40;99.90;;;;;;5071723;28;20391;-62
2022/06/03 02:44:51;;;;;;;6.57;4.38;;;11.40;99.90;;;;;;5073097;28;20402;-61
2022/06/03 02:47:44;;;;;;;6.87;4.00;;;11.40;99.90;;;;;;5071708;28;20407;-62
2022/06/03 02:50:31;;;;;;;6.60;4.20;;;11.40;99.90;;;;;;5073921;28;20375;-62
2022/06/03 02:53:23;;;;;;;5.70;3.85;;;11.30;99.90;;;;;;5073139;28;20387;-62
2022/06/03 02:56:33;;;;;;;6.55;4.00;;;11.30;99.90;;;;;;5071590;28;20379;-62
2022/06/03 02:59:09;;;;;;;5.85;3.85;;;11.30;99.90;;;;;;5046531;28;20445;-62
2022/06/03 03:02:23;;;;;;;7.90;4.35;;;11.30;99.90;;;;;;5070961;28;20479;-62
2022/06/03 03:05:16;;;;;;;6.80;4.10;;;11.30;99.90;;;;;;5063651;28;20465;-62
2022/06/03 03:08:16;;;;;;;6.57;4.15;;;11.40;99.90;;;;;;5069386;28;20409;-62
2022/06/03 03:11:04;;;;;;;6.82;4.25;;;11.40;99.90;;;;;;5069940;28;20385;-62
2022/06/03 03:13:57;;;;;;;5.83;3.97;;;11.30;99.90;;;;;;5069752;28;20433;-62
2022/06/03 03:16:44;;;;;;;5.47;4.20;;;11.20;99.90;;;;;;5069753;28;20378;-62
2022/06/03 03:19:28;;;;;;;7.70;4.43;;;11.20;99.90;;;;;;5070383;28;20378;-62
2022/06/03 03:22:09;;;;;;;6.78;4.50;;;11.10;99.90;;;;;;5088878;28;20389;-62
2022/06/03 03:24:34;;;;;;;9.20;4.38;;;11.10;99.90;;;;;;5071646;28;20728;-62
2022/06/03 03:27:12;;;;;;;6.30;4.47;;;11.10;99.90;;;;;;5072179;28;20410;-62
2022/06/03 03:29:57;;;;;;;4.82;3.90;;;11.10;99.90;;;;;;5073755;28;20809;-62
2022/06/03 03:32:46;;;;;;;5.20;4.20;;;11.20;99.90;;;;;;5073848;28;20394;-62
2022/06/03 03:35:52;;;;;;;7.45;4.22;;;11.10;99.90;;;;;;5075612;28;20473;-62
2022/06/03 03:38:54;;;;;;;7.90;4.15;;;11.10;99.90;;;;;;5074954;28;20390;-62
2022/06/03 03:41:19;;;;;;;5.90;4.35;;;11.10;99.90;;;;;;5073398;28;20422;-62
2022/06/03 03:44:45;;;;;;;7.00;4.20;;;11.20;99.90;;;;;;5073770;28;20437;-62
2022/06/03 03:47:57;;;;;;;5.75;4.18;;;11.20;99.90;;;;;;4972721;28;20406;-62
2022/06/03 03:50:45;;;;;;;4.78;4.13;;;11.10;99.90;;;;;;5090638;28;20400;-62
2022/06/03 03:53:36;;;;;;;7.15;4.50;;;11.10;99.90;;;;;;5072297;28;20472;-62
2022/06/03 03:56:32;;;;;;;6.38;4.60;;;11.10;99.90;;;;;;5072355;28;20378;-62
2022/06/03 03:59:35;;;;;;;7.30;4.80;;;11.10;99.90;;;;;;5072765;28;20782;-61
2022/06/03 04:02:25;;;;;;;6.03;4.47;;;11.10;99.90;;;;;;5069640;28;20398;-62
2022/06/03 04:05:01;;;;;;;6.03;4.85;;;11.20;99.90;;;;;;5072879;28;20382;-62
2022/06/03 04:07:50;;;;;;;9.40;5.07;;;11.20;99.90;;;;;;5074093;28;20428;-62
2022/06/03 04:10:29;;;;;;;8.05;5.47;;;11.20;99.90;;;;;;5089467;28;20379;-63
2022/06/03 04:13:22;;;;;;;8.05;5.50;;;11.10;99.90;;;;;;5069616;28;20394;-62
2022/06/03 04:15:56;;;;;;;7.53;5.43;;;11.10;99.90;;;;;;5070119;28;20677;-62
2022/06/03 04:18:53;;;;;;;7.30;5.83;;;11.10;99.90;;;;;;5068047;28;20469;-62
2022/06/03 04:21:40;;;;;;;8.75;6.30;;;11.10;99.90;;;;;;5087575;28;20655;-62
2022/06/03 04:24:34;;;;;;;10.98;6.53;;;11.10;99.90;;;;;;5070524;28;20444;-62
2022/06/03 04:27:20;;;;;;;9.57;6.95;;;11.10;99.90;;;;;;5036162;28;20404;-62
2022/06/03 04:30:04;;;;;;;9.80;7.30;;;11.20;99.90;;;;;;5070137;28;20779;-62
2022/06/03 04:32:54;;;;;;;10.70;7.40;;;11.10;99.90;;;;;;5088862;28;20773;-63
2022/06/03 04:35:44;;;;;;;9.18;7.57;;;11.20;99.90;;;;;;5072761;28;20378;-62
2022/06/03 04:38:40;;;;;;;12.23;7.93;;;11.20;99.90;;;;;;5075544;28;20382;-62
2022/06/03 04:41:54;;;;;;;10.20;7.32;;;11.20;99.90;;;;;;5094093;28;20462;-62
2022/06/03 04:44:32;;;;;;;8.80;7.55;;;11.30;99.90;;;;;;5077763;28;20841;-62
2022/06/03 04:47:25;;;;;;;11.02;8.30;;;11.40;99.90;;;;;;5075867;28;20397;-62
2022/06/03 04:50:25;;;;;;;10.45;7.57;;;11.40;99.90;;;;;;5074825;28;20472;-62
2022/06/03 04:53:09;;;;;;;8.80;7.30;;;11.40;99.90;;;;;;5072766;28;20377;-62
2022/06/03 04:56:09;;;;;;;10.45;8.02;;;11.50;99.90;;;;;;5071888;28;20393;-62
2022/06/03 04:58:49;;;;;;;9.90;8.10;;;11.60;99.90;;;;;;5087808;28;20421;-63
2022/06/03 05:01:52;;;;;;;11.30;8.23;;;11.70;99.90;;;;;;5068753;28;20377;-62
2022/06/03 05:04:39;;;;;;;13.70;8.07;;;11.70;99.90;;;;;;5067937;28;20421;-62
2022/06/03 05:07:19;;;;;;;12.82;9.05;;;11.80;99.90;;;;;;5068572;28;20689;-62
2022/06/03 05:10:27;;;;;;;9.95;8.43;;;11.80;99.90;;;;;;5066878;28;20762;-62
2022/06/03 05:13:12;;;;;;;10.68;8.45;;;11.90;99.90;;;;;;5051947;28;20507;-62
2022/06/03 05:16:05;;;;;;;11.75;9.40;;;11.90;99.90;;;;;;5067261;28;20432;-63
2022/06/03 05:18:53;;;;;;;11.13;9.07;;;11.90;99.90;;;;;;5069561;28;20640;-62
2022/06/03 05:21:18;;;;;;;12.40;8.77;;;12.00;99.90;;;;;;5085748;28;20381;-62
2022/06/03 05:24:06;;;;;;;11.40;8.57;;;11.90;99.90;;;;;;5087605;28;20390;-62
2022/06/03 05:26:53;;;;;;;11.00;7.93;;;11.90;99.90;;;;;;5069026;28;20621;-61
2022/06/03 05:29:37;;;;;;;11.13;8.07;;;12.00;99.90;;;;;;5071420;28;20674;-62
2022/06/03 05:32:25;;;;;;;9.15;6.90;;;12.10;99.90;;;;;;5071919;28;20382;-62
2022/06/03 05:35:22;;;;;;;8.15;6.78;;;12.10;99.90;;;;;;5088553;28;20386;-62
2022/06/03 05:38:05;;;;;;;7.63;6.30;;;12.20;99.90;;;;;;5090354;28;20382;-62
2022/06/03 05:40:43;;;;;;;6.93;6.18;;;12.30;99.90;;;;;;5070338;28;20386;-62
2022/06/03 05:43:37;;;;;;;9.60;6.80;;;12.30;99.90;;;;;;5069868;28;20783;-62
2022/06/03 05:46:07;;;;;;;9.10;7.63;;;12.40;99.90;;;;;;5069248;28;20642;-61
2022/06/03 05:48:54;;;;;;;11.83;8.17;;;12.40;99.90;;;;;;5069586;28;20662;-61
2022/06/03 05:51:47;;;;;;;12.65;8.10;;;12.40;99.90;;;;;;5071263;28;20382;-62
2022/06/03 05:54:56;;;;;;;13.45;8.30;;;12.40;99.90;;;;;;5070297;28;20388;-62
2022/06/03 05:58:01;;;;;;;11.75;7.80;;;12.40;99.90;;;;;;5071427;28;20735;-62
2022/06/03 06:01:00;;;;;;;11.00;7.97;;;12.40;99.90;;;;;;5072071;28;20400;-61
2022/06/03 06:03:44;;;;;;;12.75;8.77;;;12.30;99.90;;;;;;5069014;28;20413;-62
2022/06/03 06:06:22;;;;;;;11.43;8.27;;;12.20;99.90;;;;;;5084652;28;20386;-62
2022/06/03 06:09:20;;;;;;;10.57;7.38;;;12.30;99.90;;;;;;5084010;28;20390;-62
2022/06/03 06:12:04;;;;;;;10.07;7.25;;;12.50;99.90;;;;;;5066393;28;20586;-62
2022/06/03 06:15:03;;;;;;;15.13;9.30;;;12.50;99.90;;;;;;5066188;28;20488;-61
2022/06/03 06:17:41;;;;;;;10.40;8.48;;;12.40;99.90;;;;;;5065508;28;20631;-61
2022/06/03 06:20:38;;;;;;;13.50;8.75;;;12.40;99.90;;;;;;5066440;28;20465;-62
2022/06/03 06:23:38;;;;;;;12.55;8.50;;;12.30;99.90;;;;;;5061892;28;20380;-62
2022/06/03 06:26:33;;;;;;;9.10;7.10;;;12.40;99.90;;;;;;5060874;28;20381;-61
2022/06/03 06:29:13;;;;;;;12.27;8.77;;;12.50;99.90;;;;;;5059630;28;20744;-61
2022/06/03 06:31:51;;;;;;;8.48;7.22;;;12.70;99.90;;;;;;5059907;28;20390;-61
2022/06/03 06:34:54;;;;;;;13.53;7.03;;;12.80;99.90;;;;;;5077999;28;20374;-61
2022/06/03 06:37:41;;;;;;;13.75;8.68;;;12.80;99.90;;;;;;5058493;28;20709;-61
2022/06/03 06:40:30;;;;;;;11.43;7.68;;;12.90;99.90;;;;;;5059338;28;20850;-61
2022/06/03 06:43:09;;;;;;;10.10;7.65;;;13.00;99.90;;;;;;5042216;28;20472;-61
2022/06/03 06:45:41;;;;;;;7.63;6.75;;;13.00;99.90;;;;;;5055629;28;20600;-61
2022/06/03 06:48:10;;;;;;;8.43;6.70;;;13.10;99.90;;;;;;5056177;28;20502;-60
2022/06/03 06:50:41;;;;;;;7.47;6.32;;;13.20;99.90;;;;;;5076178;28;20378;-61
2022/06/03 06:53:17;;;;;;;9.30;6.45;;;13.30;99.90;;;;;;5058078;28;20551;-61
2022/06/03 06:55:55;;;;;;;7.05;5.80;;;13.40;99.90;;;;;;5059196;28;20405;-61
2022/06/03 06:58:42;;;;;;;5.50;4.97;;;13.40;99.90;;;;;;5060276;28;20398;-62
2022/06/03 07:01:16;;;;;;;11.75;7.15;;;13.50;99.90;;;;;;5059211;28;20397;-62
2022/06/03 07:03:48;;;;;;;6.68;5.57;;;13.50;99.90;;;;;;5061257;28;20406;-61
2022/06/03 07:06:33;;;;;;;6.03;4.90;;;13.60;99.90;;;;;;5078624;28;20800;-61
2022/06/03 07:09:11;;;;;;;5.00;4.05;;;13.60;99.90;;;;;;5061872;28;20509;-61
2022/06/03 07:12:06;;;;;;;5.07;4.05;;;13.60;99.90;;;;;;5060525;28;20532;-61
2022/06/03 07:14:40;;;;;;;6.78;4.70;;;13.70;99.90;;;;;;5057514;28;20394;-61
2022/06/03 07:20:15;;;;;;;5.35;3.75;;;13.70;99.90;;;;;;5074797;28;20369;-61
2022/06/03 07:22:56;;;;;;;4.10;3.70;;;13.70;99.90;;;;;;5055686;28;20412;-61
2022/06/03 07:25:38;;;;;;;7.32;4.80;;;13.80;99.90;;;;;;5056926;28;20477;-61
2022/06/03 07:28:25;;;;;;;7.40;4.78;;;13.80;99.90;;;;;;5056416;28;20590;-61
2022/06/03 07:31:17;;;;;;;5.90;3.90;;;13.70;99.90;;;;;;5060565;28;20385;-61
2022/06/03 07:33:59;;;;;;;4.65;3.70;;;13.80;99.90;;;;;;5060287;28;20446;-61
2022/06/03 07:36:50;;;;;;;6.93;4.70;;;13.90;99.90;;;;;;5061971;28;20385;-62
2022/06/03 07:39:45;;;;;;;7.75;4.60;;;14.00;99.90;;;;;;5058572;28;20396;-62
2022/06/03 07:42:40;;;;;;;6.67;4.03;;;14.00;99.90;;;;;;5076857;28;20709;-61
2022/06/03 07:45:19;;;;;;;3.60;2.90;;;14.00;99.90;;;;;;5023910;28;20571;-61
2022/06/03 07:47:45;;;;;;;5.73;3.83;;;14.10;99.90;;;;;;5062031;28;20965;-62
2022/06/03 07:50:17;;;;;;;7.20;4.30;;;14.20;99.90;;;;;;5059148;28;20390;-62
2022/06/03 07:52:50;;;;;;;6.37;3.50;;;14.20;99.90;;;;;;5061158;28;20378;-62
2022/06/03 07:55:25;;;;;;;4.32;2.97;;;14.10;99.90;;;;;;5084679;28;20446;-62
2022/06/03 07:57:56;;;;;;;3.78;2.63;;;14.10;99.90;;;;;;5083382;28;20509;-61
2022/06/03 08:00:23;;;;;;;5.20;2.85;;;14.30;99.90;;;;;;5063772;28;20530;-62
2022/06/03 08:03:14;;;;;;;2.92;2.10;;;14.40;99.90;;;;;;5059439;28;20615;-61
2022/06/03 08:05:42;;;;;;;3.85;2.40;;;14.50;99.90;;;;;;5030702;28;20986;-61
2022/06/03 08:11:04;;;;;;;6.88;3.80;;;14.60;99.90;;;;;;5056583;28;20387;-61
2022/06/03 08:13:39;;;;;;;6.70;3.33;;;14.60;99.90;;;;;;5055557;28;20720;-61
2022/06/03 08:16:10;;;;;;;5.03;3.27;;;14.60;99.90;;;;;;5055920;28;20519;-61
2022/06/03 08:18:42;;;;;;;3.47;2.97;;;14.70;99.90;;;;;;5055605;28;20387;-62
2022/06/03 08:21:12;;;;;;;4.70;2.50;;;14.80;99.90;;;;;;5054417;28;20427;-61
2022/06/03 08:23:38;;;;;;;3.90;2.10;;;14.90;99.90;;;;;;5050885;28;20410;-61
2022/06/03 08:26:14;;;;;;;4.70;2.63;;;14.90;99.90;;;;;;5049884;28;20474;-61
2022/06/03 08:28:47;;;;;;;4.72;2.65;;;15.00;99.90;;;;;;5056092;28;20412;-61
2022/06/03 08:31:12;;;;;;;5.88;2.75;;;15.10;99.90;;;;;;5057492;28;20468;-62
2022/06/03 08:33:49;;;;;;;3.42;2.50;;;15.20;99.90;;;;;;5056541;28;20402;-61
2022/06/03 08:36:19;;;;;;;7.23;2.93;;;15.10;99.90;;;;;;5055365;28;20479;-62
2022/06/03 08:39:06;;;;;;;4.70;2.92;;;15.10;99.90;;;;;;5057880;28;20509;-62
2022/06/03 08:41:50;;;;;;;3.40;1.90;;;15.10;99.90;;;;;;5054267;28;20446;-62
2022/06/03 08:44:24;;;;;;;4.80;2.25;;;15.10;99.90;;;;;;5055977;28;20414;-62
2022/06/03 08:47:12;;;;;;;4.60;2.35;;;15.10;99.90;;;;;;5053227;28;20895;-62
2022/06/03 08:49:56;;;;;;;2.85;1.80;;;15.00;99.90;;;;;;5055984;28;20445;-60
2022/06/03 08:52:44;;;;;;;3.13;1.75;;;15.10;99.90;;;;;;5064904;28;20474;-62
2022/06/03 08:55:47;;;;;;;3.27;1.77;;;15.20;99.90;;;;;;5065883;28;20407;-62
2022/06/03 08:58:39;;;;;;;4.57;1.90;;;15.30;99.90;;;;;;5061527;28;20404;-62
2022/06/03 09:01:24;;;;;;;4.38;2.13;;;15.40;99.90;;;;;;5065804;28;20379;-61
2022/06/03 09:04:02;;;;;;;3.55;1.92;;;15.50;99.90;;;;;;5085707;28;20397;-62
2022/06/03 09:06:51;;;;;;;4.00;2.30;;;15.60;99.90;;;;;;5069480;28;20385;-62
2022/06/03 09:09:25;;;;;;;2.60;1.70;;;15.70;99.90;;;;;;5069980;28;20471;-62
2022/06/03 09:12:29;;;;;;;3.65;1.73;;;15.60;99.90;;;;;;5069565;28;20384;-62
2022/06/03 09:15:02;;;;;;;2.80;1.60;;;15.70;99.90;;;;;;4988107;28;20493;-62
2022/06/03 09:17:58;;;;;;;3.72;2.00;;;15.80;99.90;;;;;;5073803;28;20934;-62
2022/06/03 09:20:36;;;;;;;4.28;1.88;;;15.80;99.90;;;;;;5069369;28;20385;-62
2022/06/03 09:23:05;;;;;;;3.65;1.90;;;15.90;99.90;;;;;;5070914;28;20412;-62
2022/06/03 09:25:34;;;;;;;2.80;1.80;;;15.90;99.90;;;;;;5071229;28;20681;-62
2022/06/03 09:28:04;;;;;;;4.47;2.10;;;15.90;99.90;;;;;;5071001;28;20413;-62
2022/06/03 09:30:37;;;;;;;2.85;1.55;;;16.10;99.90;;;;;;5088506;28;20465;-62
2022/06/03 09:33:06;;;;;;;2.33;1.60;;;16.10;99.90;;;;;;5071568;28;20370;-61
2022/06/03 09:35:34;;;;;;;3.83;1.40;;;16.20;99.90;;;;;;5073231;28;20382;-61
2022/06/03 09:38:01;;;;;;;3.03;1.73;;;16.30;99.90;;;;;;5073138;28;20431;-64
2022/06/03 09:40:31;;;;;;;3.93;1.70;;;16.40;99.90;;;;;;5074940;28;20390;-62
2022/06/03 09:43:15;;;;;;;3.92;1.60;;;16.40;99.90;;;;;;5072197;28;20389;-62
2022/06/03 09:45:46;;;;;;;2.17;1.23;;;16.50;99.90;;;;;;5073398;28;20825;-61
2022/06/03 09:48:14;;;;;;;2.85;1.65;;;16.60;99.90;;;;;;5092313;28;20682;-67
2022/06/03 09:50:46;;;;;;;2.17;1.60;;;16.60;99.90;;;;;;5091307;28;20382;-62
2022/06/03 09:53:12;;;;;;;3.38;1.70;;;16.70;99.90;;;;;;5074548;28;20475;-62
2022/06/03 09:55:47;;;;;;;2.30;1.35;;;16.70;99.90;;;;;;5075296;28;20406;-62
2022/06/03 09:58:21;;;;;;;3.80;1.30;;;16.70;99.90;;;;;;5074937;28;20398;-61
2022/06/03 10:00:50;;;;;;;2.40;1.20;;;16.70;99.90;;;;;;5089668;28;20415;-62
2022/06/03 10:03:16;;;;;;;3.20;1.60;;;16.70;99.90;;;;;;5089330;28;20689;-63
2022/06/03 10:05:50;;;;;;;2.17;1.70;;;16.80;99.90;;;;;;5072872;28;20385;-62
2022/06/03 10:08:19;;;;;;;2.45;1.58;;;16.90;99.90;;;;;;5073694;28;20945;-62
2022/06/03 10:13:33;;;;;;;2.58;1.60;;;16.90;99.90;;;;;;5091092;28;20546;-62
2022/06/03 10:16:00;;;;;;;2.33;1.20;;;16.90;99.90;;;;;;5073945;28;20378;-62
2022/06/03 10:18:38;;;;;;;3.63;1.50;;;16.90;99.90;;;;;;5073413;28;20389;-63
2022/06/03 10:21:10;;;;;;;2.72;1.30;;;17.00;99.90;;;;;;5091188;28;20381;-62
2022/06/03 10:23:42;;;;;;;1.58;1.10;;;17.00;99.90;;;;;;5070964;28;20466;-62
2022/06/03 10:26:08;;;;;;;0.82;0.82;;;17.20;99.90;;;;;;5071180;28;20447;-62
2022/06/03 10:28:36;;;;;;;3.22;1.33;;;17.30;99.90;;;;;;5072251;28;20850;-62
2022/06/03 10:31:14;;;;;;;1.30;0.90;;;17.40;99.90;;;;;;5089316;28;20389;-62
2022/06/03 10:33:58;;;;;;;1.83;1.20;;;17.40;99.90;;;;;;5071005;28;20386;-61
2022/06/03 10:36:55;;;;;;;2.42;0.95;;;17.50;99.90;;;;;;5089935;28;20472;-62
2022/06/03 10:39:23;;;;;;;3.05;1.08;;;17.60;99.90;;;;;;5054593;28;20382;-62
2022/06/03 10:41:53;;;;;;;2.50;1.20;;;17.50;99.90;;;;;;5070864;28;20382;-62
2022/06/03 10:44:28;;;;;;;1.75;1.00;;;17.50;99.90;;;;;;5069690;28;20393;-63
2022/06/03 10:47:07;;;;;;;2.97;1.20;;;17.50;99.90;;;;;;5086400;28;20378;-62
2022/06/03 10:49:37;;;;;;;2.38;1.20;;;17.50;99.90;;;;;;5068084;28;20370;-62
2022/06/03 11:03:30;;;;;;;4.25;2.05;;;17.90;99.90;;;;;;5087732;28;20452;-62
2022/06/03 11:05:56;;;;;;;2.10;1.10;;;18.00;99.90;;;;;;5086631;28;20378;-62
2022/06/03 11:08:22;;;;;;;1.55;1.00;;;18.10;99.90;;;;;;5084775;28;20455;-62
2022/06/03 11:10:52;;;;;;;2.42;1.60;;;18.10;99.90;;;;;;5084124;28;20878;-61
2022/06/03 11:13:30;;;;;;;1.98;1.27;;;18.20;99.90;;;;;;5065017;28;20401;-62
2022/06/03 11:16:10;;;;;;;4.47;1.60;;;18.20;99.90;;;;;;5065100;28;20450;-62
2022/06/03 11:18:35;;;;;;;4.25;1.27;;;18.20;99.90;;;;;;5063282;28;20382;-62
2022/06/03 11:21:16;;;;;;;1.37;1.10;;;18.20;99.90;;;;;;5063799;28;20394;-62
2022/06/03 11:23:42;;;;;;;2.13;0.90;;;18.30;99.90;;;;;;5080451;28;20386;-62
2022/06/03 11:26:09;;;;;;;2.40;1.08;;;18.40;99.90;;;;;;5061327;28;20659;-62
2022/06/03 11:28:43;;;;;;;1.10;0.85;;;18.50;99.90;;;;;;5081755;28;20410;-61
2022/06/03 11:31:21;;;;;;;1.50;0.90;;;18.50;99.90;;;;;;5078726;28;20455;-62
2022/06/03 11:33:51;;;;;;;1.52;0.93;;;18.60;99.90;;;;;;5078084;28;20385;-62
2022/06/03 11:36:28;;;;;;;2.05;1.15;;;18.80;99.90;;;;;;5060814;28;20382;-61
2022/06/03 11:39:02;;;;;;;1.40;0.90;;;19.00;99.90;;;;;;5063740;28;20404;-61
2022/06/03 11:41:34;;;;;;;1.17;0.90;;;19.20;99.90;;;;;;5065562;28;20885;-61
2022/06/03 11:44:05;;;;;;;1.38;0.88;;;19.50;99.90;;;;;;5063835;28;20480;-61
2022/06/03 11:46:36;;;;;;;2.05;1.00;;;19.80;99.90;;;;;;5061104;28;20386;-61
2022/06/03 11:49:03;;;;;;;2.50;1.10;;;20.00;99.90;;;;;;5064385;28;20971;-62
2022/06/03 11:51:29;;;;;;;1.63;0.90;;;20.30;99.90;;;;;;5082277;28;20387;-62
2022/06/03 11:53:55;;;;;;;6.50;1.30;;;20.60;99.90;;;;;;5082623;28;20374;-62
2022/06/03 11:56:25;;;;;;;1.92;1.05;;;20.80;99.90;;;;;;5084689;28;20405;-62
2022/06/03 11:59:06;;;;;;;1.27;0.90;;;20.90;99.90;;;;;;5088093;28;20398;-62
2022/06/03 12:01:50;;;;;;;1.63;0.95;;;21.20;99.90;;;;;;5073545;28;20447;-62
2022/06/03 12:04:41;;;;;;;3.20;1.10;;;21.50;99.90;;;;;;5072679;28;20428;-62
2022/06/03 12:07:51;;;;;;;1.30;1.07;;;21.40;99.90;;;;;;5070467;28;21069;-61
2022/06/03 12:10:25;;;;;;;1.65;1.00;;;21.50;99.90;;;;;;5067858;28;20386;-61
2022/06/03 12:13:17;;;;;;;1.10;0.90;;;21.90;99.90;;;;;;5070921;28;20442;-61
2022/06/03 12:15:56;;;;;;;1.90;1.08;;;22.20;99.90;;;;;;5069941;28;20382;-63
2022/06/03 12:18:42;;;;;;;3.05;1.30;;;22.00;99.90;;;;;;5069657;28;20386;-61
2022/06/03 12:21:13;;;;;;;2.22;1.20;;;21.90;99.90;;;;;;5069526;28;20392;-61
2022/06/03 12:23:38;;;;;;;2.15;1.20;;;21.90;99.90;;;;;;5066654;28;20382;-62
2022/06/03 12:26:23;;;;;;;2.50;1.20;;;22.20;99.90;;;;;;5063835;28;20378;-62
2022/06/03 12:28:52;;;;;;;2.05;1.25;;;22.20;99.90;;;;;;5064037;28;20424;-61
2022/06/03 12:31:34;;;;;;;1.88;1.20;;;22.50;99.90;;;;;;5080430;28;20374;-61
2022/06/03 12:34:11;;;;;;;3.40;1.83;;;22.70;99.90;;;;;;5063086;28;20785;-61
2022/06/03 12:36:52;;;;;;;2.25;1.20;;;22.80;99.90;;;;;;5062209;28;21022;-62
2022/06/03 12:39:25;;;;;;;2.88;1.40;;;23.00;99.90;;;;;;5063651;28;20402;-62
2022/06/03 12:41:51;;;;;;;1.73;1.17;;;23.20;99.90;;;;;;5060893;28;20830;-61
2022/06/03 12:44:39;;;;;;;0.97;0.80;;;23.40;99.90;;;;;;5057977;28;20381;-61
2022/06/03 12:47:33;;;;;;;1.35;0.93;;;23.60;99.90;;;;;;5058824;28;20428;-61
2022/06/03 12:50:05;;;;;;;1.80;1.00;;;23.90;99.90;;;;;;5058414;28;20944;-61
2022/06/03 12:52:31;;;;;;;0.75;0.70;;;24.10;99.90;;;;;;5059600;28;20374;-61
2022/06/03 12:55:13;;;;;;;1.38;0.90;;;24.30;99.90;;;;;;5080809;28;20707;-61
2022/06/03 12:58:23;;;;;;;0.90;0.80;;;24.40;99.90;;;;;;5066198;28;20402;-61
2022/06/03 13:00:53;;;;;;;1.73;0.90;;;24.50;99.90;;;;;;4985922;28;21044;-61
2022/06/03 13:03:25;;;;;;;1.10;0.90;;;24.50;99.90;;;;;;5068049;28;20425;-61
2022/06/03 13:05:58;;;;;;;2.20;0.90;;;24.60;99.90;;;;;;5088310;28;20956;-60
2022/06/03 13:08:26;;;;;;;1.65;1.10;;;24.80;99.90;;;;;;5070488;28;20491;-60
2022/06/03 13:11:03;;;;;;;1.40;1.10;;;24.90;99.90;;;;;;5092126;28;20374;-61
2022/06/03 13:13:32;;;;;;;1.38;0.90;;;25.10;99.90;;;;;;5067308;28;20402;-60
2022/06/03 13:16:17;;;;;;;0.88;0.77;;;25.00;99.40;;;;;;5066105;28;20374;-61
2022/06/03 13:18:44;;;;;;;1.45;0.80;;;25.30;99.90;;;;;;5064841;28;20377;-61
2022/06/03 13:21:13;;;;;;;1.00;0.80;;;25.20;99.90;;;;;;5064267;28;20385;-60
2022/06/03 13:23:56;;;;;;;1.20;0.88;;;25.20;99.30;;;;;;5081935;28;20770;-61
2022/06/03 13:26:22;;;;;;;1.52;0.82;;;25.60;99.90;;;;;;5063111;28;20445;-60
2022/06/03 13:28:56;;;;;;;2.00;1.10;;;25.60;99.10;;;;;;5065645;28;20685;-59
2022/06/03 13:31:26;;;;;;;1.23;0.80;;;25.90;99.90;;;;;;5065855;28;20427;-61
2022/06/03 13:34:10;;;;;;;1.02;0.68;;;26.00;98.20;;;;;;5066110;28;20381;-60
2022/06/03 13:36:40;;;;;;;0.90;0.80;;;26.20;98.50;;;;;;5064413;28;20668;-60
2022/06/03 13:39:13;;;;;;;1.02;0.80;;;26.50;98.60;;;;;;5081348;28;20410;-60
2022/06/03 13:44:42;;;;;;;1.05;0.65;;;26.50;97.10;;;;;;5080116;28;20674;-60
2022/06/03 13:47:19;;;;;;;0.80;0.80;;;26.80;96.30;;;;;;5079334;28;20394;-60
2022/06/03 13:50:13;;;;;;;3.22;1.02;;;27.10;96.40;;;;;;5079045;28;20475;-60
2022/06/03 13:52:51;;;;;;;1.33;0.90;;;27.00;95.70;;;;;;5068823;28;20911;-60
2022/06/03 13:55:34;;;;;;;1.40;1.02;;;26.70;94.80;;;;;;5096811;28;20600;-60
2022/06/03 13:58:06;;;;;;;1.10;0.90;;;26.50;92.90;;;;;;5074694;28;20794;-60
2022/06/03 14:00:32;;;;;;;2.78;1.00;;;26.10;92.50;;;;;;5092867;28;20380;-60
2022/06/03 14:03:09;;;;;;;1.02;0.93;;;26.30;93.50;;;;;;5074818;28;20708;-60
2022/06/03 14:05:58;;;;;;;0.98;0.90;;;26.60;94.90;;;;;;5095031;28;20777;-60
2022/06/03 14:08:34;;;;;;;1.63;0.90;;;26.80;94.40;;;;;;5075688;28;20403;-60
2022/06/03 14:11:12;;;;;;;2.42;1.02;;;27.30;94.20;;;;;;5079680;28;20524;-59
2022/06/03 14:13:44;;;;;;;1.10;0.70;;;27.60;93.70;;;;;;5079501;28;20607;-59
2022/06/03 14:16:15;;;;;;;1.13;0.90;;;27.90;94.20;;;;;;5083041;28;20384;-60
2022/06/03 14:18:44;;;;;;;2.10;0.97;;;28.10;93.90;;;;;;5080849;28;20384;-60
2022/06/03 14:21:24;;;;;;;0.80;0.77;;;28.20;92.60;;;;;;5083684;28;20480;-60
2022/06/03 14:23:51;;;;;;;1.70;0.85;;;28.60;92.30;;;;;;5085557;28;20602;-60